createdAt,value
2017-08-09T00:00:12.831Z,0
2017-08-09T00:01:21.821Z,0
2017-08-09T00:02:31.000Z,0
2017-08-09T00:03:40.136Z,0
2017-08-09T00:04:49.340Z,0
2017-08-09T00:05:58.490Z,0
2017-08-09T00:07:07.904Z,0
2017-08-09T00:08:17.088Z,0
2017-08-09T00:09:26.043Z,0
2017-08-09T00:10:35.025Z,0
2017-08-09T00:11:43.994Z,0
2017-08-09T00:12:52.954Z,0
2017-08-09T00:14:01.916Z,0
2017-08-09T00:15:10.883Z,0
2017-08-09T00:16:19.839Z,0
2017-08-09T00:17:29.130Z,0
2017-08-09T00:18:38.464Z,0
2017-08-09T00:19:47.425Z,0
2017-08-09T00:20:56.404Z,0
2017-08-09T00:22:05.364Z,0
2017-08-09T00:23:14.322Z,0
2017-08-09T00:24:23.719Z,0
2017-08-09T00:25:32.690Z,0
2017-08-09T00:26:41.651Z,0
2017-08-09T00:27:50.606Z,0
2017-08-09T00:28:59.562Z,0
2017-08-09T00:30:08.541Z,0
2017-08-09T00:31:17.501Z,0
2017-08-09T00:32:26.463Z,0
2017-08-09T00:33:35.429Z,0
2017-08-09T00:34:44.390Z,0
2017-08-09T00:35:53.348Z,0
2017-08-09T00:37:02.309Z,0
2017-08-09T00:38:11.266Z,0
2017-08-09T00:39:20.225Z,0
2017-08-09T00:40:29.194Z,0
2017-08-09T00:41:38.146Z,0
2017-08-09T00:42:47.427Z,0
2017-08-09T00:43:56.382Z,0
2017-08-09T00:45:05.343Z,0
2017-08-09T00:46:14.307Z,0
2017-08-09T00:47:23.264Z,0
2017-08-09T00:48:32.222Z,0
2017-08-09T00:49:41.190Z,0
2017-08-09T00:50:50.154Z,0
2017-08-09T00:51:59.443Z,0
2017-08-09T00:53:08.413Z,0
2017-08-09T00:54:17.380Z,0
2017-08-09T00:55:26.334Z,0
2017-08-09T00:56:35.285Z,0
2017-08-09T00:57:44.245Z,0
2017-08-09T00:58:53.201Z,0
2017-08-09T01:00:02.164Z,0
2017-08-09T01:01:11.117Z,0
2017-08-09T01:02:20.067Z,0
2017-08-09T01:03:29.029Z,0
2017-08-09T01:04:37.987Z,0
2017-08-09T01:05:46.954Z,0
2017-08-09T01:06:55.907Z,0
2017-08-09T01:08:04.871Z,0
2017-08-09T01:09:13.837Z,0
2017-08-09T01:10:22.794Z,0
2017-08-09T01:11:31.749Z,0
2017-08-09T01:12:40.708Z,0
2017-08-09T01:13:49.670Z,0
2017-08-09T01:14:58.635Z,0
2017-08-09T01:16:07.601Z,0
2017-08-09T01:17:16.570Z,0
2017-08-09T01:18:25.535Z,0
2017-08-09T01:19:34.489Z,0
2017-08-09T01:20:43.450Z,0
2017-08-09T01:21:52.420Z,0
2017-08-09T01:23:01.377Z,0
2017-08-09T01:24:10.659Z,0
2017-08-09T01:25:20.063Z,0
2017-08-09T01:26:29.119Z,0
2017-08-09T01:27:38.400Z,0
2017-08-09T01:28:47.362Z,0
2017-08-09T01:29:56.330Z,0
2017-08-09T01:31:05.288Z,0
2017-08-09T01:32:14.257Z,0
2017-08-09T01:33:23.219Z,0
2017-08-09T01:34:32.179Z,0
2017-08-09T01:35:41.149Z,0
2017-08-09T01:36:50.117Z,0
2017-08-09T01:37:59.084Z,0
2017-08-09T01:39:08.047Z,0
2017-08-09T01:40:17.046Z,0
2017-08-09T01:41:26.015Z,0
2017-08-09T01:42:34.974Z,0
2017-08-09T01:43:43.936Z,0
2017-08-09T01:44:52.905Z,0
2017-08-09T01:46:01.889Z,0
2017-08-09T01:47:11.502Z,0
2017-08-09T01:48:20.465Z,0
2017-08-09T01:49:29.437Z,0
2017-08-09T01:50:38.426Z,0
2017-08-09T01:51:47.387Z,0
2017-08-09T01:52:56.345Z,0
2017-08-09T01:54:05.300Z,0
2017-08-09T01:55:14.250Z,0
2017-08-09T01:56:23.213Z,0
2017-08-09T01:57:32.177Z,0
2017-08-09T01:58:41.140Z,0
2017-08-09T01:59:50.101Z,0
2017-08-09T02:00:59.055Z,0
2017-08-09T02:02:08.020Z,0
2017-08-09T02:03:16.974Z,0
2017-08-09T02:04:25.937Z,0
2017-08-09T02:05:34.898Z,0
2017-08-09T02:06:43.866Z,0
2017-08-09T02:07:52.826Z,0
2017-08-09T02:09:01.789Z,0
2017-08-09T02:10:11.106Z,0
2017-08-09T02:11:20.066Z,0
2017-08-09T02:12:29.022Z,0
2017-08-09T02:13:37.996Z,0
2017-08-09T02:14:46.982Z,0
2017-08-09T02:15:55.941Z,0
2017-08-09T02:17:04.903Z,0
2017-08-09T02:18:13.875Z,0
2017-08-09T02:19:22.832Z,0
2017-08-09T02:20:32.118Z,0
2017-08-09T02:21:41.093Z,0
2017-08-09T02:22:50.055Z,0
2017-08-09T02:23:59.004Z,0
2017-08-09T02:25:07.977Z,0
2017-08-09T02:26:16.936Z,0
2017-08-09T02:27:25.895Z,0
2017-08-09T02:28:34.856Z,0
2017-08-09T02:29:43.821Z,0
2017-08-09T02:30:52.786Z,0
2017-08-09T02:32:01.746Z,0
2017-08-09T02:33:10.703Z,0
2017-08-09T02:34:19.667Z,0
2017-08-09T02:35:28.629Z,0
2017-08-09T02:36:37.915Z,0
2017-08-09T02:37:46.873Z,0
2017-08-09T02:38:56.169Z,0
2017-08-09T02:40:05.153Z,0
2017-08-09T02:41:14.445Z,0
2017-08-09T02:42:24.091Z,0
2017-08-09T02:43:33.057Z,0
2017-08-09T02:44:42.033Z,0
2017-08-09T02:45:50.992Z,0
2017-08-09T02:46:59.958Z,0
2017-08-09T02:48:08.921Z,0
2017-08-09T02:49:17.885Z,0
2017-08-09T02:50:26.849Z,0
2017-08-09T02:51:35.810Z,0
2017-08-09T02:52:44.769Z,0
2017-08-09T02:53:53.739Z,0
2017-08-09T02:55:02.694Z,0
2017-08-09T02:56:11.652Z,0
2017-08-09T02:57:20.906Z,0
2017-08-09T02:58:29.982Z,0
2017-08-09T02:59:38.945Z,0
2017-08-09T03:00:47.903Z,0
2017-08-09T03:01:56.868Z,0
2017-08-09T03:03:05.837Z,0
2017-08-09T03:04:14.785Z,0
2017-08-09T03:05:23.741Z,0
2017-08-09T03:06:32.697Z,0
2017-08-09T03:07:41.652Z,0
2017-08-09T03:08:50.940Z,0
2017-08-09T03:10:00.200Z,0
2017-08-09T03:11:09.158Z,0
2017-08-09T03:12:18.114Z,0
2017-08-09T03:13:27.076Z,0
2017-08-09T03:14:36.034Z,0
2017-08-09T03:15:44.992Z,0
2017-08-09T03:16:53.955Z,0
2017-08-09T03:18:02.917Z,0
2017-08-09T03:19:12.214Z,0
2017-08-09T03:20:21.171Z,4
2017-08-09T03:21:30.120Z,4
2017-08-09T03:22:39.077Z,0
2017-08-09T03:23:48.035Z,4
2017-08-09T03:24:56.991Z,4
2017-08-09T03:26:05.946Z,8
2017-08-09T03:27:14.903Z,4
2017-08-09T03:28:24.195Z,8
2017-08-09T03:29:33.159Z,8
2017-08-09T03:30:42.126Z,8
2017-08-09T03:31:51.410Z,8
2017-08-09T03:33:00.376Z,8
2017-08-09T03:34:09.347Z,12
2017-08-09T03:35:18.335Z,12
2017-08-09T03:36:27.293Z,12
2017-08-09T03:37:36.248Z,12
2017-08-09T03:38:45.211Z,16
2017-08-09T03:39:54.164Z,16
2017-08-09T03:41:03.115Z,20
2017-08-09T03:42:12.072Z,20
2017-08-09T03:43:21.357Z,20
2017-08-09T03:44:30.319Z,20
2017-08-09T03:45:39.275Z,20
2017-08-09T03:46:48.231Z,28
2017-08-09T03:47:57.181Z,28
2017-08-09T03:49:06.149Z,36
2017-08-09T03:50:15.103Z,40
2017-08-09T03:51:24.067Z,48
2017-08-09T03:52:33.029Z,68
2017-08-09T03:53:41.998Z,76
2017-08-09T03:54:50.985Z,84
2017-08-09T03:55:59.940Z,96
2017-08-09T03:57:08.917Z,112
2017-08-09T03:58:17.874Z,108
2017-08-09T03:59:26.826Z,100
2017-08-09T04:00:35.795Z,96
2017-08-09T04:01:44.755Z,92
2017-08-09T04:02:53.716Z,84
2017-08-09T04:04:02.670Z,80
2017-08-09T04:05:11.635Z,80
2017-08-09T04:06:20.601Z,84
2017-08-09T04:07:29.562Z,84
2017-08-09T04:08:38.530Z,84
2017-08-09T04:09:47.484Z,84
2017-08-09T04:10:56.447Z,76
2017-08-09T04:12:05.409Z,76
2017-08-09T04:13:14.731Z,80
2017-08-09T04:14:24.021Z,88
2017-08-09T04:15:32.969Z,92
2017-08-09T04:16:41.935Z,92
2017-08-09T04:17:50.888Z,88
2017-08-09T04:18:59.856Z,96
2017-08-09T04:20:08.816Z,116
2017-08-09T04:21:17.774Z,108
2017-08-09T04:22:26.727Z,100
2017-08-09T04:23:35.688Z,100
2017-08-09T04:24:44.653Z,96
2017-08-09T04:25:53.615Z,100
2017-08-09T04:27:02.580Z,104
2017-08-09T04:28:11.544Z,124
2017-08-09T04:29:20.514Z,160
2017-08-09T04:30:29.481Z,152
2017-08-09T04:31:38.535Z,128
2017-08-09T04:32:47.500Z,112
2017-08-09T04:33:56.453Z,112
2017-08-09T04:35:05.422Z,112
2017-08-09T04:36:14.701Z,116
2017-08-09T04:37:23.995Z,132
2017-08-09T04:38:32.959Z,136
2017-08-09T04:39:41.918Z,132
2017-08-09T04:40:50.874Z,132
2017-08-09T04:41:59.838Z,132
2017-08-09T04:43:08.813Z,140
2017-08-09T04:44:17.778Z,140
2017-08-09T04:45:26.738Z,136
2017-08-09T04:46:35.692Z,140
2017-08-09T04:47:44.644Z,136
2017-08-09T04:48:53.604Z,144
2017-08-09T04:50:02.565Z,148
2017-08-09T04:51:11.526Z,156
2017-08-09T04:52:20.493Z,168
2017-08-09T04:53:29.464Z,176
2017-08-09T04:54:38.439Z,184
2017-08-09T04:55:47.394Z,176
2017-08-09T04:56:56.348Z,180
2017-08-09T04:58:05.309Z,192
2017-08-09T04:59:14.273Z,204
2017-08-09T05:00:23.227Z,216
2017-08-09T05:01:32.189Z,236
2017-08-09T05:02:41.158Z,264
2017-08-09T05:03:50.119Z,296
2017-08-09T05:04:59.083Z,368
2017-08-09T05:06:08.038Z,392
2017-08-09T05:07:16.987Z,368
2017-08-09T05:08:25.957Z,428
2017-08-09T05:09:34.917Z,464
2017-08-09T05:10:43.884Z,468
2017-08-09T05:11:52.841Z,472
2017-08-09T05:13:01.802Z,484
2017-08-09T05:14:10.768Z,496
2017-08-09T05:15:19.722Z,520
2017-08-09T05:16:28.683Z,484
2017-08-09T05:17:37.639Z,500
2017-08-09T05:18:46.596Z,552
2017-08-09T05:19:55.548Z,588
2017-08-09T05:21:04.508Z,616
2017-08-09T05:22:13.469Z,572
2017-08-09T05:23:22.432Z,532
2017-08-09T05:24:31.403Z,512
2017-08-09T05:25:40.371Z,508
2017-08-09T05:26:49.335Z,472
2017-08-09T05:27:58.322Z,432
2017-08-09T05:29:07.275Z,468
2017-08-09T05:30:16.240Z,488
2017-08-09T05:31:25.200Z,508
2017-08-09T05:32:34.169Z,464
2017-08-09T05:33:43.126Z,456
2017-08-09T05:34:52.085Z,480
2017-08-09T05:36:01.377Z,456
2017-08-09T05:37:10.344Z,472
2017-08-09T05:38:19.303Z,460
2017-08-09T05:39:28.265Z,476
2017-08-09T05:40:37.230Z,476
2017-08-09T05:41:46.187Z,488
2017-08-09T05:42:55.143Z,512
2017-08-09T05:44:04.117Z,532
2017-08-09T05:45:13.072Z,572
2017-08-09T05:46:22.039Z,736
2017-08-09T05:47:30.997Z,708
2017-08-09T05:48:39.951Z,496
2017-08-09T05:49:48.920Z,460
2017-08-09T05:50:57.884Z,488
2017-08-09T05:52:07.175Z,548
2017-08-09T05:53:16.137Z,564
2017-08-09T05:54:25.089Z,608
2017-08-09T05:55:34.047Z,632
2017-08-09T05:56:43.004Z,560
2017-08-09T05:57:51.963Z,508
2017-08-09T05:59:00.919Z,540
2017-08-09T06:00:09.884Z,528
2017-08-09T06:01:18.854Z,524
2017-08-09T06:02:27.802Z,584
2017-08-09T06:03:36.767Z,592
2017-08-09T06:04:45.731Z,616
2017-08-09T06:05:54.683Z,668
2017-08-09T06:07:03.638Z,632
2017-08-09T06:08:12.600Z,612
2017-08-09T06:09:21.565Z,612
2017-08-09T06:10:30.519Z,620
2017-08-09T06:11:39.477Z,620
2017-08-09T06:12:48.439Z,636
2017-08-09T06:13:57.399Z,652
2017-08-09T06:15:07.004Z,656
2017-08-09T06:16:15.974Z,664
2017-08-09T06:17:24.952Z,676
2017-08-09T06:18:33.908Z,688
2017-08-09T06:19:42.860Z,708
2017-08-09T06:20:51.812Z,728
2017-08-09T06:22:00.778Z,748
2017-08-09T06:23:09.738Z,752
2017-08-09T06:24:18.692Z,772
2017-08-09T06:25:27.659Z,768
2017-08-09T06:26:36.619Z,760
2017-08-09T06:27:45.591Z,732
2017-08-09T06:28:54.545Z,748
2017-08-09T06:30:03.504Z,752
2017-08-09T06:31:12.463Z,732
2017-08-09T06:32:21.772Z,744
2017-08-09T06:33:30.746Z,744
2017-08-09T06:34:39.706Z,748
2017-08-09T06:35:48.721Z,744
2017-08-09T06:36:57.680Z,744
2017-08-09T06:38:06.635Z,736
2017-08-09T06:39:15.921Z,736
2017-08-09T06:40:24.900Z,748
2017-08-09T06:41:33.861Z,772
2017-08-09T06:42:43.209Z,764
2017-08-09T06:43:52.900Z,764
2017-08-09T06:45:01.906Z,836
2017-08-09T06:46:10.930Z,908
2017-08-09T06:47:20.041Z,872
2017-08-09T06:48:30.907Z,884
2017-08-09T06:49:39.927Z,916
2017-08-09T06:50:48.956Z,976
2017-08-09T06:51:57.930Z,1028
2017-08-09T06:53:06.942Z,1168
2017-08-09T06:54:15.918Z,1280
2017-08-09T06:55:24.899Z,1248
2017-08-09T06:56:34.008Z,1256
2017-08-09T06:57:43.071Z,1280
2017-08-09T06:58:52.127Z,1404
2017-08-09T07:00:01.297Z,1488
2017-08-09T07:01:10.373Z,1616
2017-08-09T07:02:19.649Z,1736
2017-08-09T07:03:28.675Z,1804
2017-08-09T07:04:37.645Z,1728
2017-08-09T07:05:46.608Z,1732
2017-08-09T07:06:55.566Z,1828
2017-08-09T07:08:04.530Z,1776
2017-08-09T07:09:13.489Z,1760
2017-08-09T07:10:22.455Z,1684
2017-08-09T07:11:31.412Z,1592
2017-08-09T07:12:40.378Z,1692
2017-08-09T07:13:49.341Z,1716
2017-08-09T07:14:58.305Z,1552
2017-08-09T07:16:07.267Z,1300
2017-08-09T07:17:16.224Z,1304
2017-08-09T07:18:25.197Z,1400
2017-08-09T07:19:34.159Z,1732
2017-08-09T07:20:43.123Z,1924
2017-08-09T07:21:52.274Z,2020
2017-08-09T07:23:01.373Z,1968
2017-08-09T07:24:10.640Z,1880
2017-08-09T07:25:19.598Z,1768
2017-08-09T07:26:28.566Z,1616
2017-08-09T07:27:37.521Z,1704
2017-08-09T07:28:46.480Z,1720
2017-08-09T07:29:55.440Z,1944
2017-08-09T07:31:04.396Z,1868
2017-08-09T07:32:13.354Z,1648
2017-08-09T07:33:22.462Z,1652
2017-08-09T07:34:31.431Z,1904
2017-08-09T07:35:40.385Z,1872
2017-08-09T07:36:50.431Z,1864
2017-08-09T07:37:59.411Z,2048
2017-08-09T07:39:08.372Z,2116
2017-08-09T07:40:17.430Z,2100
2017-08-09T07:41:26.565Z,2192
2017-08-09T07:42:35.594Z,2144
2017-08-09T07:43:44.718Z,1992
2017-08-09T07:44:53.685Z,1748
2017-08-09T07:46:02.642Z,1864
2017-08-09T07:47:11.630Z,1932
2017-08-09T07:48:20.789Z,2068
2017-08-09T07:49:29.800Z,2004
2017-08-09T07:50:38.832Z,2024
2017-08-09T07:51:47.960Z,2080
2017-08-09T07:52:57.024Z,2056
2017-08-09T07:54:06.192Z,2108
2017-08-09T07:55:15.253Z,1984
2017-08-09T07:56:24.368Z,2024
2017-08-09T07:57:33.430Z,1988
2017-08-09T07:58:42.540Z,2068
2017-08-09T07:59:51.831Z,2088
2017-08-09T08:01:00.792Z,2052
2017-08-09T08:02:09.829Z,1904
2017-08-09T08:03:18.908Z,1872
2017-08-09T08:04:27.874Z,1932
2017-08-09T08:05:36.967Z,2124
2017-08-09T08:06:45.957Z,2008
2017-08-09T08:07:54.940Z,1892
2017-08-09T08:09:04.034Z,2020
2017-08-09T08:10:13.044Z,1988
2017-08-09T08:11:22.108Z,1896
2017-08-09T08:12:31.169Z,1992
2017-08-09T08:13:40.192Z,1956
2017-08-09T08:14:49.157Z,2120
2017-08-09T08:15:58.111Z,2132
2017-08-09T08:17:07.175Z,1884
2017-08-09T08:18:16.144Z,1908
2017-08-09T08:19:25.141Z,1968
2017-08-09T08:20:34.409Z,2012
2017-08-09T08:21:43.432Z,2092
2017-08-09T08:22:52.470Z,2324
2017-08-09T08:24:01.430Z,2460
2017-08-09T08:25:10.401Z,2308
2017-08-09T08:26:19.372Z,2192
2017-08-09T08:27:28.453Z,2256
2017-08-09T08:28:37.431Z,2348
2017-08-09T08:29:46.508Z,2348
2017-08-09T08:30:55.470Z,2284
2017-08-09T08:32:04.569Z,2296
2017-08-09T08:33:13.663Z,2328
2017-08-09T08:34:22.634Z,2268
2017-08-09T08:35:31.598Z,2300
2017-08-09T08:36:40.563Z,2308
2017-08-09T08:37:49.534Z,2320
2017-08-09T08:38:58.502Z,2340
2017-08-09T08:40:07.545Z,2272
2017-08-09T08:41:16.651Z,2276
2017-08-09T08:42:25.858Z,2292
2017-08-09T08:43:34.922Z,2284
2017-08-09T08:44:43.897Z,2288
2017-08-09T08:45:52.978Z,2236
2017-08-09T08:47:01.948Z,2276
2017-08-09T08:48:11.121Z,1916
2017-08-09T08:49:20.123Z,1780
2017-08-09T08:50:29.076Z,1724
2017-08-09T08:51:38.043Z,1504
2017-08-09T08:52:47.185Z,1448
2017-08-09T08:53:56.558Z,1416
2017-08-09T08:55:06.028Z,1336
2017-08-09T08:56:15.327Z,1352
2017-08-09T08:57:24.393Z,1952
2017-08-09T08:58:33.439Z,2020
2017-08-09T08:59:42.449Z,1896
2017-08-09T09:00:51.539Z,1640
2017-08-09T09:02:00.503Z,1400
2017-08-09T09:03:09.509Z,1464
2017-08-09T09:04:18.559Z,1372
2017-08-09T09:05:27.618Z,1280
2017-08-09T09:06:36.657Z,1152
2017-08-09T09:07:45.656Z,1104
2017-08-09T09:08:54.986Z,1100
2017-08-09T09:10:04.035Z,1104
2017-08-09T09:11:13.057Z,1080
2017-08-09T09:12:22.159Z,1068
2017-08-09T09:13:31.163Z,1064
2017-08-09T09:14:40.184Z,1060
2017-08-09T09:15:49.175Z,1060
2017-08-09T09:16:58.152Z,1076
2017-08-09T09:18:07.142Z,1032
2017-08-09T09:19:16.131Z,1012
2017-08-09T09:20:25.143Z,1036
2017-08-09T09:21:34.126Z,1060
2017-08-09T09:22:43.116Z,1088
2017-08-09T09:23:52.099Z,1084
2017-08-09T09:25:01.082Z,1084
2017-08-09T09:26:10.053Z,1100
2017-08-09T09:27:19.046Z,1092
2017-08-09T09:28:28.028Z,1080
2017-08-09T09:29:37.013Z,1076
2017-08-09T09:30:46.003Z,1080
2017-08-09T09:31:54.989Z,1084
2017-08-09T09:33:04.306Z,1084
2017-08-09T09:34:13.298Z,1100
2017-08-09T09:35:22.292Z,1104
2017-08-09T09:36:31.290Z,1108
2017-08-09T09:37:40.273Z,1116
2017-08-09T09:38:49.255Z,1132
2017-08-09T09:39:58.249Z,1180
2017-08-09T09:41:07.233Z,1192
2017-08-09T09:42:16.228Z,1196
2017-08-09T09:43:25.239Z,1200
2017-08-09T09:44:34.236Z,1216
2017-08-09T09:45:43.218Z,1188
2017-08-09T09:46:52.208Z,1204
2017-08-09T09:48:01.193Z,1204
2017-08-09T09:49:10.174Z,1240
2017-08-09T09:50:19.499Z,1276
2017-08-09T09:51:28.482Z,1284
2017-08-09T09:52:37.473Z,1268
2017-08-09T09:53:46.477Z,1276
2017-08-09T09:54:55.455Z,1268
2017-08-09T09:56:04.767Z,1280
2017-08-09T09:57:13.784Z,1260
2017-08-09T09:58:22.769Z,1232
2017-08-09T09:59:32.072Z,1232
2017-08-09T10:00:41.053Z,1264
2017-08-09T10:01:50.031Z,984
2017-08-09T10:02:59.020Z,716
2017-08-09T10:04:07.982Z,1364
2017-08-09T10:05:16.940Z,1440
2017-08-09T10:06:25.907Z,1212
2017-08-09T10:07:34.867Z,1436
2017-08-09T10:08:43.829Z,1720
2017-08-09T10:09:52.793Z,1428
2017-08-09T10:11:01.766Z,1368
2017-08-09T10:12:10.726Z,1284
2017-08-09T10:13:19.714Z,1240
2017-08-09T10:14:28.704Z,1292
2017-08-09T10:15:37.669Z,1288
2017-08-09T10:16:46.625Z,1292
2017-08-09T10:17:55.618Z,1384
2017-08-09T10:19:04.605Z,1448
2017-08-09T10:20:13.591Z,1844
2017-08-09T10:21:22.574Z,1480
2017-08-09T10:22:31.564Z,2416
2017-08-09T10:23:40.543Z,1500
2017-08-09T10:24:49.530Z,1368
2017-08-09T10:25:58.524Z,1392
2017-08-09T10:27:07.485Z,1348
2017-08-09T10:28:16.448Z,1348
2017-08-09T10:29:25.405Z,1384
2017-08-09T10:30:34.363Z,1616
2017-08-09T10:31:43.335Z,1172
2017-08-09T10:32:52.618Z,1020
2017-08-09T10:34:01.577Z,1744
2017-08-09T10:35:10.542Z,968
2017-08-09T10:36:19.537Z,1048
2017-08-09T10:37:28.498Z,1388
2017-08-09T10:38:37.482Z,2124
2017-08-09T10:39:46.440Z,2184
2017-08-09T10:40:55.404Z,916
2017-08-09T10:42:05.234Z,1356
2017-08-09T10:43:14.602Z,1536
2017-08-09T10:44:27.209Z,2028
2017-08-09T10:45:38.914Z,1772
2017-08-09T10:46:48.145Z,2208
2017-08-09T10:47:57.174Z,2704
2017-08-09T10:49:06.213Z,1848
2017-08-09T10:50:15.743Z,1456
2017-08-09T10:51:25.004Z,1644
2017-08-09T10:52:34.010Z,1504
2017-08-09T10:53:43.212Z,1712
2017-08-09T10:54:52.212Z,1864
2017-08-09T10:56:01.227Z,1532
2017-08-09T10:57:10.437Z,1424
2017-08-09T10:58:19.805Z,1420
2017-08-09T10:59:28.909Z,928
2017-08-09T11:00:38.026Z,792
2017-08-09T11:01:47.202Z,664
2017-08-09T11:02:56.402Z,1696
2017-08-09T11:04:05.556Z,1480
2017-08-09T11:05:14.607Z,1060
2017-08-09T11:06:23.714Z,1352
2017-08-09T11:07:33.203Z,2264
2017-08-09T11:08:42.549Z,2048
2017-08-09T11:09:51.625Z,1868
2017-08-09T11:11:00.647Z,928
2017-08-09T11:12:09.713Z,776
2017-08-09T11:13:18.673Z,1920
2017-08-09T11:14:27.829Z,2156
2017-08-09T11:15:36.793Z,2364
2017-08-09T11:16:45.757Z,2500
2017-08-09T11:17:54.734Z,1880
2017-08-09T11:19:03.699Z,1500
2017-08-09T11:20:12.657Z,1432
2017-08-09T11:21:21.743Z,1528
2017-08-09T11:22:31.435Z,1412
2017-08-09T11:23:40.678Z,1388
2017-08-09T11:24:49.967Z,1556
2017-08-09T11:25:58.949Z,2156
2017-08-09T11:27:08.075Z,1352
2017-08-09T11:28:17.074Z,1180
2017-08-09T11:29:26.358Z,1144
2017-08-09T11:30:35.318Z,1896
2017-08-09T11:31:44.360Z,2368
2017-08-09T11:32:53.417Z,1992
2017-08-09T11:34:02.417Z,1920
2017-08-09T11:35:11.444Z,1656
2017-08-09T11:36:20.452Z,1620
2017-08-09T11:37:29.401Z,1604
2017-08-09T11:38:38.422Z,1408
2017-08-09T11:39:47.400Z,1336
2017-08-09T11:40:56.365Z,1320
2017-08-09T11:42:05.367Z,1332
2017-08-09T11:43:14.411Z,1404
2017-08-09T11:44:23.411Z,1308
2017-08-09T11:45:32.525Z,1476
2017-08-09T11:46:41.519Z,1712
2017-08-09T11:47:50.511Z,1320
2017-08-09T11:48:59.471Z,1304
2017-08-09T11:50:08.472Z,1284
2017-08-09T11:51:17.443Z,968
2017-08-09T11:52:26.483Z,832
2017-08-09T11:53:35.463Z,2152
2017-08-09T11:54:44.469Z,2192
2017-08-09T11:55:53.438Z,1728
2017-08-09T11:57:02.398Z,1768
2017-08-09T11:58:11.356Z,1444
2017-08-09T11:59:20.456Z,1720
2017-08-09T12:00:29.413Z,2072
2017-08-09T12:01:38.512Z,1416
2017-08-09T12:02:47.497Z,1260
2017-08-09T12:03:56.844Z,1248
2017-08-09T12:05:05.859Z,644
2017-08-09T12:06:14.918Z,588
2017-08-09T12:07:24.199Z,1164
2017-08-09T12:08:33.180Z,1676
2017-08-09T12:09:42.474Z,1928
2017-08-09T12:10:51.444Z,1380
2017-08-09T12:12:00.401Z,1360
2017-08-09T12:13:09.388Z,1228
2017-08-09T12:14:18.485Z,1200
2017-08-09T12:15:27.493Z,1244
2017-08-09T12:16:36.540Z,1368
2017-08-09T12:17:45.538Z,1752
2017-08-09T12:18:54.531Z,1516
2017-08-09T12:20:03.766Z,836
2017-08-09T12:21:12.793Z,1232
2017-08-09T12:22:21.959Z,1272
2017-08-09T12:23:31.036Z,1280
2017-08-09T12:24:40.058Z,1256
2017-08-09T12:25:49.154Z,1448
2017-08-09T12:26:58.306Z,892
2017-08-09T12:28:07.355Z,656
2017-08-09T12:29:16.390Z,940
2017-08-09T12:30:25.429Z,1760
2017-08-09T12:31:34.434Z,1832
2017-08-09T12:32:43.426Z,1948
2017-08-09T12:33:52.396Z,1204
2017-08-09T12:35:01.576Z,1492
2017-08-09T12:36:10.749Z,1516
2017-08-09T12:37:19.955Z,1856
2017-08-09T12:38:28.922Z,1828
2017-08-09T12:39:37.888Z,1404
2017-08-09T12:40:46.849Z,1192
2017-08-09T12:41:55.826Z,1392
2017-08-09T12:43:04.791Z,1336
2017-08-09T12:44:14.098Z,1720
2017-08-09T12:45:23.071Z,1840
2017-08-09T12:46:32.049Z,1996
2017-08-09T12:47:41.008Z,1440
2017-08-09T12:48:49.972Z,1212
2017-08-09T12:49:58.935Z,1156
2017-08-09T12:51:07.901Z,1216
2017-08-09T12:52:16.858Z,1224
2017-08-09T12:53:25.831Z,884
2017-08-09T12:54:34.795Z,648
2017-08-09T12:55:43.759Z,528
2017-08-09T12:56:52.725Z,612
2017-08-09T12:58:01.688Z,1208
2017-08-09T12:59:10.645Z,1320
2017-08-09T13:00:19.607Z,1848
2017-08-09T13:01:28.574Z,1316
2017-08-09T13:02:37.548Z,1480
2017-08-09T13:03:46.528Z,968
2017-08-09T13:04:55.485Z,912
2017-08-09T13:06:04.452Z,540
2017-08-09T13:07:13.413Z,540
2017-08-09T13:08:22.385Z,484
2017-08-09T13:09:31.354Z,872
2017-08-09T13:10:40.323Z,1068
2017-08-09T13:11:49.599Z,1448
2017-08-09T13:12:58.657Z,1456
2017-08-09T13:14:07.830Z,1380
2017-08-09T13:15:16.898Z,1300
2017-08-09T13:16:25.973Z,1076
2017-08-09T13:17:35.286Z,1056
2017-08-09T13:18:44.350Z,1828
2017-08-09T13:19:53.406Z,2128
2017-08-09T13:21:02.481Z,1968
2017-08-09T13:22:11.506Z,1820
2017-08-09T13:23:20.598Z,904
2017-08-09T13:24:29.666Z,1200
2017-08-09T13:25:38.729Z,652
2017-08-09T13:26:47.730Z,648
2017-08-09T13:27:56.777Z,1392
2017-08-09T13:29:06.217Z,756
2017-08-09T13:30:15.300Z,1456
2017-08-09T13:31:24.569Z,1568
2017-08-09T13:32:33.665Z,1364
2017-08-09T13:33:42.822Z,1204
2017-08-09T13:34:51.854Z,1200
2017-08-09T13:36:01.062Z,1332
2017-08-09T13:37:10.036Z,1364
2017-08-09T13:38:19.034Z,1416
2017-08-09T13:39:28.033Z,1412
2017-08-09T13:40:37.072Z,1436
2017-08-09T13:41:46.175Z,1380
2017-08-09T13:42:55.207Z,620
2017-08-09T13:44:04.215Z,1144
2017-08-09T13:45:13.255Z,536
2017-08-09T13:46:22.267Z,508
2017-08-09T13:47:31.468Z,1072
2017-08-09T13:48:40.522Z,496
2017-08-09T13:49:49.590Z,520
2017-08-09T13:50:58.619Z,892
2017-08-09T13:52:07.668Z,932
2017-08-09T13:53:16.712Z,564
2017-08-09T13:54:26.098Z,1268
2017-08-09T13:55:35.197Z,1364
2017-08-09T13:56:44.266Z,1356
2017-08-09T13:57:53.359Z,1392
2017-08-09T13:59:02.435Z,1312
2017-08-09T14:00:11.469Z,1248
2017-08-09T14:01:20.527Z,1264
2017-08-09T14:02:29.562Z,1236
2017-08-09T14:03:38.625Z,1188
2017-08-09T14:04:47.662Z,1184
2017-08-09T14:05:56.618Z,1248
2017-08-09T14:07:05.583Z,1296
2017-08-09T14:08:14.566Z,648
2017-08-09T14:09:23.929Z,560
2017-08-09T14:10:32.917Z,536
2017-08-09T14:11:41.901Z,1476
2017-08-09T14:12:50.897Z,1356
2017-08-09T14:13:59.882Z,508
2017-08-09T14:15:08.869Z,408
2017-08-09T14:16:17.864Z,692
2017-08-09T14:17:26.848Z,1148
2017-08-09T14:18:35.835Z,1464
2017-08-09T14:19:44.821Z,1784
2017-08-09T14:20:53.806Z,1876
2017-08-09T14:22:02.834Z,1700
2017-08-09T14:23:11.827Z,1692
2017-08-09T14:24:20.814Z,1384
2017-08-09T14:25:29.810Z,708
2017-08-09T14:26:38.804Z,616
2017-08-09T14:27:47.790Z,760
2017-08-09T14:28:56.780Z,1268
2017-08-09T14:30:05.764Z,712
2017-08-09T14:31:14.764Z,1000
2017-08-09T14:32:24.072Z,580
2017-08-09T14:33:33.063Z,604
2017-08-09T14:34:42.043Z,728
2017-08-09T14:35:51.034Z,928
2017-08-09T14:37:00.027Z,740
2017-08-09T14:38:09.017Z,728
2017-08-09T14:39:18.015Z,468
2017-08-09T14:40:27.003Z,584
2017-08-09T14:41:36.001Z,1084
2017-08-09T14:42:44.997Z,1112
2017-08-09T14:43:53.992Z,1336
2017-08-09T14:45:02.982Z,1716
2017-08-09T14:46:11.948Z,1584
2017-08-09T14:47:20.906Z,1636
2017-08-09T14:48:29.863Z,1752
2017-08-09T14:49:39.161Z,2024
2017-08-09T14:50:48.139Z,1620
2017-08-09T14:51:57.432Z,1120
2017-08-09T14:53:06.774Z,1044
2017-08-09T14:54:17.255Z,672
2017-08-09T14:55:27.910Z,604
2017-08-09T14:56:37.279Z,788
2017-08-09T14:57:46.259Z,552
2017-08-09T14:58:55.222Z,504
2017-08-09T15:00:04.191Z,488
2017-08-09T15:01:13.168Z,704
2017-08-09T15:02:22.130Z,1224
2017-08-09T15:03:31.095Z,1088
2017-08-09T15:04:40.056Z,1052
2017-08-09T15:05:49.014Z,952
2017-08-09T15:06:57.985Z,1008
2017-08-09T15:08:06.946Z,1244
2017-08-09T15:09:15.933Z,1328
2017-08-09T15:10:24.911Z,1576
2017-08-09T15:11:33.874Z,1524
2017-08-09T15:12:42.833Z,1344
2017-08-09T15:13:52.820Z,1356
2017-08-09T15:15:01.780Z,1468
2017-08-09T15:16:12.688Z,916
2017-08-09T15:17:22.003Z,1272
2017-08-09T15:18:31.225Z,1184
2017-08-09T15:19:42.372Z,1404
2017-08-09T15:20:52.832Z,992
2017-08-09T15:22:02.295Z,532
2017-08-09T15:23:12.380Z,688
2017-08-09T15:24:21.745Z,492
2017-08-09T15:25:31.536Z,904
2017-08-09T15:26:43.825Z,464
2017-08-09T15:27:53.557Z,864
2017-08-09T15:29:03.228Z,844
2017-08-09T15:30:12.364Z,892
2017-08-09T15:31:21.341Z,1036
2017-08-09T15:32:30.385Z,1012
2017-08-09T15:33:39.566Z,988
2017-08-09T15:34:48.606Z,1000
2017-08-09T15:35:57.739Z,1068
2017-08-09T15:37:06.707Z,1044
2017-08-09T15:38:15.676Z,1116
2017-08-09T15:39:24.678Z,1080
2017-08-09T15:40:33.643Z,1032
2017-08-09T15:41:42.682Z,1260
2017-08-09T15:42:51.648Z,1080
2017-08-09T15:44:00.611Z,1172
2017-08-09T15:45:09.941Z,1064
2017-08-09T15:46:18.898Z,760
2017-08-09T15:47:27.862Z,764
2017-08-09T15:48:36.850Z,772
2017-08-09T15:49:45.815Z,616
